Date,TemperatureHighF,TemperatureAvgF,TemperatureLowF,DewpointHighF,DewpointAvgF,DewpointLowF,HumidityHigh,HumidityAvg,HumidityLow,PressureMaxIn,PressureMinIn,WindSpeedMaxMPH,WindSpeedAvgMPH,GustSpeedMaxMPH,PrecipitationSumIn
2013-1-1,33.2,22.9,12.0,28.5,16.2,7.5,89,75,65,30.05,29.86,13,6,20,0.00
2013-1-2,25.8,22.1,16.7,18.9,16.0,11.3,90,77,72,30.21,30.01,19,6,23,0.00
2013-1-3,30.8,23.9,16.5,27.1,20.5,13.5,91,87,82,30.20,29.96,20,6,25,0.00
2013-1-4,33.4,30.1,25.4,28.0,25.0,20.9,86,81,78,30.04,29.87,36,19,51,0.00
2013-1-5,35.4,31.4,29.5,29.2,26.0,23.5,84,80,72,30.29,30.04,21,7,26,0.00
2013-1-6,35.7,34.3,31.8,33.6,31.7,25.3,94,90,75,30.10,29.88,16,8,21,0.02
2013-1-7,34.1,29.4,25.1,30.9,24.4,21.2,89,82,74,30.40,30.10,15,6,20,0.00
2013-1-8,37.8,32.0,27.2,31.6,26.6,22.6,94,80,73,30.31,30.14,14,5,20,0.00
2013-1-9,45.9,38.9,29.2,37.2,31.3,24.0,85,74,62,30.35,29.94,35,11,48,0.00
2013-1-10,42.9,37.1,33.9,30.5,29.2,26.9,85,73,59,30.59,30.35,12,3,20,0.00
2013-1-11,49.2,42.1,34.3,45.2,37.2,28.2,91,82,70,30.40,29.86,13,3,20,0.05
2013-1-12,59.5,52.1,44.4,51.9,48.1,42.5,95,86,75,29.97,29.91,17,5,27,0.00
2013-1-13,66.8,55.1,49.0,58.6,51.8,47.8,97,89,74,29.93,29.70,27,6,36,0.59
2013-1-14,49.3,33.7,26.2,48.2,28.7,21.6,96,82,71,30.38,29.72,21,8,30,0.01
2013-1-15,32.2,28.3,25.8,23.9,22.3,19.8,86,78,63,30.41,30.17,10,3,14,0.00
2013-1-16,38.8,32.4,27.5,31.5,26.9,23.3,88,80,72,30.17,29.78,21,6,29,0.00
2013-1-17,35.2,24.8,15.6,29.6,19.0,12.8,91,79,72,30.19,29.83,22,6,28,0.00
2013-1-18,33.2,21.0,14.9,20.7,13.8,8.2,92,75,57,30.46,30.00,18,6,24,0.00
2013-1-19,48.7,41.5,32.8,31.6,28.1,19.2,67,59,46,30.04,29.54,28,12,41,0.00
2013-1-20,48.9,29.1,18.5,36.5,20.6,10.1,95,71,47,30.08,29.43,35,16,48,0.00
2013-1-21,20.5,17.3,11.5,15.8,10.7,2.1,89,75,59,30.07,29.88,18,6,28,0.00
2013-1-22,11.5,8.6,5.9,3.0,-0.1,-3.3,83,67,55,30.20,29.91,24,14,31,0.00
2013-1-23,14.3,9.8,5.3,6.5,2.6,-1.8,87,73,54,30.26,30.12,13,4,17,0.00
2013-1-24,14.2,10.7,5.5,10.7,5.7,-0.5,90,80,67,30.55,30.11,12,4,17,0.00
2013-1-25,19.7,11.6,4.9,10.6,6.4,-0.2,91,80,62,30.53,30.10,8,2,12,0.00
2013-1-26,25.7,16.1,4.8,16.4,10.5,2.1,90,79,58,30.42,30.11,11,1,13,0.00
2013-1-27,30.1,21.7,12.2,20.6,15.9,10.1,93,79,61,30.58,30.35,8,1,9,0.00
2013-1-28,41.6,34.0,23.9,40.8,31.8,17.7,97,91,77,30.35,29.84,15,4,21,0.29
2013-1-29,56.9,43.1,35.0,54.6,41.9,33.8,98,96,92,30.03,29.69,11,3,18,0.66
2013-1-30,67.1,58.3,51.3,57.1,52.6,48.0,94,82,64,29.69,29.00,22,7,31,0.32
2013-1-31,53.8,29.0,21.1,50.9,22.5,11.7,95,77,50,29.70,29.00,36,19,47,0.54
2013-2-1,21.6,19.1,16.0,16.3,13.0,7.0,91,77,63,30.20,29.70,21,9,26,0.00
2013-2-2,20.3,17.1,13.5,15.0,12.1,5.9,90,81,65,30.19,29.98,14,5,22,0.00
2013-2-3,24.6,17.3,10.3,17.8,13.2,8.1,92,84,65,29.98,29.81,13,3,20,0.00
2013-2-4,20.7,17.0,13.7,13.6,11.1,8.4,89,78,60,29.98,29.87,19,8,24,0.00
2013-2-5,27.3,21.4,14.4,23.0,16.0,12.3,91,80,61,29.96,29.84,14,2,20,0.00
2013-2-6,27.3,22.9,14.4,23.9,15.0,7.9,88,72,51,30.38,29.88,17,6,23,0.00
2013-2-7,29.6,24.0,16.5,22.2,16.8,10.1,87,74,66,30.40,30.08,7,3,12,0.00
2013-2-8,32.0,25.9,17.6,30.7,23.6,15.9,95,91,78,30.13,29.78,8,3,14,0.00
2013-2-9,21.1,17.1,10.8,16.6,14.5,8.7,93,89,79,30.43,30.13,8,3,10,0.00
2013-2-10,40.4,22.7,3.1,27.7,16.5,0.3,93,78,53,30.42,29.94,10,1,15,0.13
2013-2-11,51.1,39.1,32.0,42.9,32.9,25.2,95,79,56,29.94,29.56,33,12,46,0.15
2013-2-12,33.7,32.5,30.4,30.5,27.2,24.8,92,81,74,29.96,29.69,24,13,33,0.00
2013-2-13,36.9,30.0,22.6,26.7,23.8,20.1,92,78,61,29.90,29.73,9,2,12,0.00
2013-2-14,40.6,31.6,21.1,35.2,27.6,19.0,94,86,57,29.90,29.75,19,3,26,0.10
2013-2-15,38.0,31.4,21.2,33.9,24.4,15.7,85,75,63,30.06,29.75,24,11,32,0.00
2013-2-16,30.1,22.8,15.9,22.0,17.3,12.7,92,80,51,30.06,29.92,9,2,12,0.00
2013-2-17,20.5,15.1,11.1,18.8,10.3,3.6,93,81,68,30.23,29.92,18,6,24,0.00
2013-2-18,31.0,21.3,8.5,21.3,12.9,5.4,88,71,54,30.30,29.88,7,2,10,0.00
2013-2-19,42.9,34.0,23.8,37.8,27.5,18.3,92,78,53,29.88,29.54,32,11,43,0.19
2013-2-20,23.9,20.6,17.8,20.0,15.5,11.8,90,81,67,30.09,29.75,28,15,35,0.00
2013-2-21,22.7,18.7,13.2,16.6,13.4,8.8,86,80,73,30.42,30.06,14,7,22,0.00
2013-2-22,35.2,28.0,20.8,30.9,23.6,16.0,92,84,70,30.40,29.98,7,3,13,0.00
2013-2-23,39.1,33.8,28.6,32.7,28.9,23.9,88,82,76,29.98,29.87,13,4,17,0.01
2013-2-24,32.1,30.5,28.5,27.7,26.0,24.0,91,83,75,30.08,29.85,18,7,23,0.00
2013-2-25,34.9,31.8,28.8,29.6,27.5,25.7,90,84,76,30.23,30.08,10,3,14,0.00
2013-2-26,43.5,34.4,26.8,33.6,28.3,23.9,96,80,57,30.23,29.75,9,4,17,0.83
2013-2-27,35.7,33.9,32.7,34.6,32.8,31.7,97,96,94,29.75,29.57,12,3,17,0.27
2013-2-28,35.1,34.1,31.9,33.4,32.6,30.8,96,94,92,29.75,29.57,8,4,14,0.30
2013-3-1,31.8,28.6,25.4,30.8,24.8,21.3,96,86,78,29.96,29.75,13,6,17,0.00
2013-3-2,26.0,23.6,20.8,21.8,19.2,17.3,89,83,75,29.97,29.90,12,6,16,0.00
2013-3-3,24.9,22.5,20.1,21.2,18.7,14.9,93,85,76,29.94,29.88,14,6,20,0.00
2013-3-4,29.7,25.5,21.7,23.7,20.2,17.1,91,80,69,30.08,29.93,14,7,22,0.00
2013-3-5,33.3,26.8,21.5,25.0,21.8,18.1,88,81,66,30.11,29.96,8,4,13,0.01
2013-3-6,39.9,33.7,26.7,33.5,29.8,23.4,91,86,77,30.15,29.95,6,2,12,0.00
2013-3-7,37.9,34.1,30.2,32.5,30.7,28.5,94,87,75,30.29,30.14,8,1,10,0.00
2013-3-8,41.6,35.1,29.5,30.3,27.3,23.8,96,75,54,30.41,30.28,12,3,17,0.01
2013-3-9,48.6,35.4,26.2,36.9,30.1,25.0,95,82,50,30.42,30.18,6,2,7,0.00
2013-3-10,67.1,51.7,34.3,39.9,31.5,26.4,79,48,31,30.18,29.92,12,3,18,0.00
2013-3-11,62.4,54.8,46.6,43.8,34.5,30.8,90,47,36,29.92,29.60,16,4,21,0.09
2013-3-12,46.7,38.1,33.8,44.2,33.8,29.1,91,84,76,29.89,29.66,20,10,28,0.01
2013-3-13,36.1,30.7,21.9,30.8,26.0,12.9,94,83,67,29.97,29.81,22,10,30,0.00
2013-3-14,31.7,25.3,19.1,17.8,13.2,6.5,83,61,38,30.08,29.97,23,10,35,0.00
2013-3-15,38.4,31.2,24.7,31.7,25.3,17.0,94,79,59,30.07,29.74,20,9,27,0.00
2013-3-16,29.5,25.7,19.1,22.3,19.0,15.4,88,76,66,29.99,29.85,8,2,10,0.00
2013-3-17,29.4,24.3,16.7,22.4,16.2,8.5,92,72,45,30.35,29.99,14,3,16,0.00
2013-3-18,34.7,26.2,16.0,31.9,19.5,10.7,93,76,51,30.34,29.67,9,3,15,0.00
2013-3-19,37.1,31.4,24.8,34.2,25.9,20.0,93,80,67,29.83,29.64,24,11,34,0.08
2013-3-20,32.1,26.8,23.4,22.7,20.4,16.8,91,77,57,29.84,29.79,18,9,26,0.00
2013-3-21,29.2,24.7,18.0,25.8,19.4,13.8,94,81,57,29.82,29.72,19,8,24,0.00
2013-3-22,32.7,28.6,24.5,27.4,24.7,21.4,93,86,74,29.94,29.75,15,9,20,0.00
2013-3-23,38.3,32.4,25.6,27.3,24.8,22.3,89,74,56,30.02,29.92,15,7,20,0.00
2013-3-24,38.4,31.9,23.5,28.4,24.2,21.6,93,74,55,30.03,29.73,6,2,9,0.00
2013-3-25,41.5,35.3,31.6,32.6,28.3,25.8,86,76,62,29.76,29.62,7,3,12,0.00
2013-3-26,47.2,39.1,32.3,32.5,29.1,24.8,89,69,44,29.95,29.74,12,4,15,0.00
2013-3-27,43.2,35.1,31.8,34.7,30.9,26.3,96,85,63,30.06,29.93,15,6,21,0.08
2013-3-28,42.8,36.7,32.6,35.9,32.7,27.5,95,86,56,30.21,30.05,10,4,14,0.15
2013-3-29,50.3,40.1,32.3,35.1,32.5,28.3,93,77,44,30.21,30.12,16,6,20,0.00
2013-3-30,50.9,38.8,28.5,34.6,28.7,23.9,95,70,41,30.21,30.02,13,3,16,0.00
2013-3-31,58.9,46.3,35.0,43.0,33.2,25.9,93,63,37,30.02,29.58,20,4,22,0.02
2013-4-1,44.7,34.7,27.0,41.6,26.0,14.9,93,72,45,29.95,29.55,25,10,35,0.00
2013-4-2,35.0,28.8,24.7,24.5,18.6,13.5,83,66,43,30.12,29.95,26,10,34,0.00
2013-4-3,35.4,30.3,26.4,20.6,17.4,13.7,71,59,41,30.40,30.12,18,8,27,0.00
2013-4-4,52.1,36.4,24.3,24.0,19.4,14.9,83,54,30,30.36,29.91,16,5,22,0.00
2013-4-5,41.9,35.8,28.9,30.9,22.7,14.8,74,59,44,30.17,29.88,16,6,26,0.00
2013-4-6,49.5,35.9,22.3,27.4,22.0,17.8,84,59,33,30.32,30.01,5,2,9,0.00
2013-4-7,66.6,53.4,40.1,46.8,35.3,23.4,75,51,34,30.02,29.68,37,11,49,0.00
2013-4-8,59.1,45.8,34.7,50.1,37.6,31.0,94,74,51,30.10,29.71,23,2,37,0.17
2013-4-9,60.6,49.1,43.7,48.7,44.4,40.2,96,85,60,30.10,29.76,20,6,37,0.68
2013-4-10,45.7,42.2,37.2,44.9,41.3,35.4,97,97,93,30.06,29.83,7,2,22,0.68
2013-4-11,38.6,33.7,31.7,37.5,31.8,29.6,96,93,80,30.12,29.91,7,3,13,0.12
2013-4-12,51.7,38.7,32.9,50.8,37.0,30.8,97,94,84,29.91,29.50,21,7,29,0.38
2013-4-13,42.9,40.3,37.7,37.9,35.8,33.1,90,84,71,29.92,29.75,23,12,33,0.00
2013-4-14,45.7,39.6,34.3,34.9,30.6,27.4,91,71,57,30.17,29.92,16,5,20,0.00
2013-4-15,70.4,54.5,37.3,51.1,40.9,28.2,76,61,45,30.14,29.96,18,4,22,0.00
2013-4-16,65.0,57.1,44.4,57.1,49.7,36.8,96,77,62,30.22,29.91,22,7,40,0.05
2013-4-17,55.8,45.5,33.9,40.0,34.4,30.7,90,67,45,30.34,30.18,8,2,13,0.00
2013-4-18,81.8,62.9,44.0,62.5,50.6,33.8,83,65,49,30.19,29.61,18,7,31,0.02
2013-4-19,73.7,57.6,41.6,60.8,48.2,30.6,88,71,60,29.72,29.30,32,14,47,0.02
2013-4-20,41.5,36.7,31.3,33.4,27.3,21.4,93,69,54,30.42,29.71,26,12,37,0.00
2013-4-21,44.4,35.0,24.5,29.6,23.0,13.3,88,63,43,30.68,30.42,6,2,9,0.00
2013-4-22,62.1,47.7,29.5,33.9,27.2,14.0,80,47,30,30.58,30.29,8,2,10,0.00
2013-4-23,67.7,52.9,37.5,43.3,34.7,26.7,73,52,31,30.30,29.88,9,2,12,0.00
2013-4-24,63.7,52.7,37.2,56.5,45.0,34.1,95,77,48,30.00,29.55,22,8,29,0.34
2013-4-25,54.0,42.7,34.4,39.7,34.4,25.7,94,75,37,30.31,30.00,23,6,31,0.04
2013-4-26,54.7,44.5,35.4,38.0,31.7,23.9,96,65,33,30.47,30.31,12,3,17,0.01
2013-4-27,69.2,53.5,35.6,45.4,36.7,27.7,84,55,33,30.42,30.18,9,2,17,0.00
2013-4-28,74.6,59.5,45.7,51.4,42.9,36.4,87,58,30,30.18,29.96,17,2,26,0.05
2013-4-29,65.4,57.8,50.6,55.3,50.8,46.6,91,78,66,30.00,29.92,9,2,16,0.03
2013-4-30,73.5,63.8,56.5,59.2,54.3,51.3,86,72,55,30.16,30.00,9,2,16,0.00
2013-5-1,79.9,66.5,54.5,57.9,51.7,38.5,85,61,38,30.29,30.16,8,2,12,0.00
2013-5-2,78.1,65.3,53.7,48.1,41.5,35.2,55,42,30,30.37,30.21,5,2,10,0.00
2013-5-3,79.0,66.1,52.4,54.7,45.9,41.7,70,50,30,30.25,30.14,5,2,10,0.00
2013-5-4,71.8,62.4,52.9,50.3,44.3,36.5,76,53,33,30.24,30.09,6,2,10,0.00
2013-5-5,74.9,63.7,52.3,52.0,45.8,42.1,71,53,36,30.17,30.03,6,2,10,0.00
2013-5-6,73.3,61.2,47.1,46.6,40.7,33.3,74,49,30,30.12,29.98,6,1,12,0.00
2013-5-7,78.8,63.5,48.7,57.7,50.8,41.1,90,65,43,30.09,29.97,5,1,7,0.00
2013-5-8,73.5,62.5,53.4,62.0,56.1,49.3,96,80,60,30.00,29.89,4,1,7,0.27
2013-5-9,71.9,61.2,55.8,61.8,57.2,51.9,98,87,60,29.93,29.84,7,2,11,0.33
2013-5-10,75.4,60.7,50.4,64.2,56.5,48.6,96,87,61,29.91,29.67,10,2,17,0.23
2013-5-11,60.1,51.3,46.1,58.5,48.4,43.6,96,90,78,29.75,29.63,13,6,20,0.09
2013-5-12,49.6,42.1,37.2,47.7,36.4,30.5,94,81,57,29.93,29.67,26,9,39,0.21
2013-5-13,47.2,40.4,33.9,38.0,33.7,29.8,89,77,60,30.13,29.92,20,8,29,0.00
2013-5-14,57.9,46.9,34.1,44.0,35.2,29.1,93,67,37,30.15,29.77,12,2,15,0.00
2013-5-15,76.6,62.2,49.0,62.1,49.5,40.7,91,65,45,29.91,29.49,28,6,37,0.03
2013-5-16,74.0,61.0,49.9,52.5,45.6,35.9,89,61,30,29.99,29.70,18,5,27,0.00
2013-5-17,66.8,54.4,39.3,48.4,42.0,37.3,96,66,36,30.20,29.99,5,1,12,0.00
2013-5-18,73.8,59.1,44.4,52.6,45.7,39.3,90,63,40,30.23,30.09,5,1,9,0.00
2013-5-19,81.4,67.4,53.2,64.9,58.0,44.6,94,73,52,30.09,29.92,7,1,14,0.00
2013-5-20,86.7,73.3,61.6,70.4,64.2,58.4,90,75,49,29.99,29.80,19,2,30,0.00
2013-5-21,86.8,73.6,61.8,71.8,65.3,58.8,96,77,54,29.90,29.68,14,4,20,0.01
2013-5-22,86.8,73.7,60.3,68.4,64.0,59.2,97,74,51,29.74,29.58,15,4,20,0.01
2013-5-23,74.0,63.3,43.7,63.9,57.9,42.4,95,83,63,29.88,29.64,20,5,27,0.26
2013-5-24,51.6,43.2,38.0,42.3,37.7,35.8,96,82,58,30.22,29.89,13,5,18,0.20
2013-5-25,57.1,47.9,38.0,39.7,36.8,33.0,92,67,45,30.25,30.16,14,5,23,0.00
2013-5-26,61.3,51.4,41.4,40.4,36.7,31.9,86,60,35,30.22,30.15,14,4,21,0.00
2013-5-27,71.2,55.9,40.9,46.5,40.8,34.4,96,63,30,30.26,30.10,10,2,12,0.00
2013-5-28,65.0,57.8,51.5,62.2,53.4,40.1,97,86,62,30.12,29.88,4,0,10,0.91
2013-5-29,78.7,69.6,62.3,67.9,64.0,60.8,97,83,62,29.98,29.84,23,5,30,0.76
2013-5-30,85.1,74.6,64.6,69.9,65.2,60.4,89,74,57,30.07,29.98,13,3,20,0.00
2013-5-31,87.5,77.6,68.5,69.6,65.9,62.3,90,69,49,30.02,29.88,14,4,20,0.00
2013-6-1,86.4,73.2,66.2,71.3,67.0,63.6,97,82,58,29.91,29.72,20,4,31,0.83
2013-6-2,73.3,67.1,54.2,66.9,62.3,50.1,98,85,67,29.86,29.63,29,7,39,1.13
2013-6-3,62.5,54.4,48.0,50.6,46.1,41.7,92,75,48,30.01,29.86,13,5,20,0.00
2013-6-4,66.4,55.7,43.7,48.3,43.4,37.1,93,67,35,30.15,30.01,8,2,14,0.00
2013-6-5,70.5,57.7,47.0,53.2,47.6,41.6,95,71,46,30.20,30.05,6,1,12,0.00
2013-6-6,58.9,55.4,51.5,58.1,52.5,44.3,97,90,68,30.06,29.81,7,1,10,1.20
2013-6-7,58.2,56.0,52.5,57.4,55.2,51.7,98,97,95,29.84,29.79,5,1,8,0.04
2013-6-8,65.1,58.7,55.4,58.7,56.2,53.5,98,92,78,30.05,29.81,9,3,12,0.03
2013-6-9,78.3,63.9,52.4,61.1,56.2,51.3,96,78,47,30.18,30.05,6,1,8,0.00
2013-6-10,72.2,65.2,60.3,70.3,62.2,56.1,97,90,82,30.07,29.65,8,0,16,0.59
2013-6-11,71.0,64.7,58.8,64.2,61.1,55.8,97,89,72,29.82,29.61,13,5,20,0.17
2013-6-12,77.7,65.5,52.7,62.3,57.5,51.6,98,77,50,29.90,29.55,4,0,7,0.00
2013-6-13,65.0,60.5,56.4,61.5,58.5,54.9,97,93,85,29.76,29.48,6,1,15,0.97
2013-6-14,72.4,62.6,53.6,60.9,57.2,52.8,98,84,56,29.97,29.76,9,2,13,0.00
2013-6-15,73.3,62.5,50.0,57.2,52.8,43.6,96,73,36,30.03,29.91,14,3,18,0.00
2013-6-16,76.0,66.6,62.2,67.7,61.1,55.4,95,83,68,29.91,29.67,14,4,20,0.19
2013-6-17,77.3,68.7,60.8,66.0,61.1,56.9,97,78,53,29.89,29.77,14,3,20,0.00
2013-6-18,70.8,61.2,50.3,57.9,53.7,48.9,96,79,49,30.06,29.86,6,1,12,0.08
2013-6-19,67.8,58.5,45.7,51.5,47.4,40.9,96,70,41,30.18,30.00,7,1,12,0.00
2013-6-20,76.6,62.7,44.7,54.5,49.2,41.8,97,66,37,30.23,30.16,7,1,13,0.00
2013-6-21,82.6,67.6,50.7,61.6,54.9,48.6,94,67,38,30.24,30.12,5,1,6,0.00
2013-6-22,86.0,74.9,61.8,70.0,64.6,56.9,88,72,56,30.12,29.95,14,3,23,0.00
2013-6-23,87.0,78.4,69.7,73.1,68.2,65.3,93,73,49,30.02,29.93,18,5,29,0.02
2013-6-24,84.5,77.4,72.1,71.9,67.3,63.8,83,72,55,30.00,29.88,17,4,26,0.00
2013-6-25,79.5,73.5,69.9,72.0,67.4,64.1,92,81,70,29.90,29.75,15,4,22,0.22
2013-6-26,81.5,73.9,67.7,71.8,67.3,63.9,94,81,62,29.79,29.74,14,4,20,0.00
2013-6-27,78.5,71.1,63.7,72.4,67.5,62.1,96,89,75,29.76,29.60,6,0,12,0.56
2013-6-28,69.7,65.0,61.3,67.5,63.8,60.4,97,96,92,29.61,29.46,2,0,5,1.08
2013-6-29,76.6,66.7,60.9,66.2,62.7,59.9,98,88,64,29.67,29.46,8,1,10,0.42
2013-6-30,76.0,67.7,58.4,67.1,62.5,57.6,98,84,65,29.90,29.67,5,1,10,0.00
2013-7-1,69.5,64.1,58.9,64.0,61.6,57.8,97,92,82,30.04,29.89,6,1,12,0.19
2013-7-2,72.1,64.6,58.0,67.0,62.4,57.2,97,93,83,30.05,29.99,5,1,6,0.02
2013-7-3,86.8,72.3,62.6,76.2,68.7,61.7,98,89,60,30.10,30.03,8,1,13,1.10
2013-7-4,83.3,74.8,69.7,73.8,69.9,67.7,98,86,62,30.14,30.06,14,2,20,0.02
2013-7-5,83.3,74.9,69.2,74.1,70.1,67.1,96,86,69,30.09,30.01,13,3,18,0.14
2013-7-6,85.0,75.6,66.7,71.8,68.9,65.2,96,81,58,30.11,29.98,7,2,9,0.00
2013-7-7,80.1,74.5,69.6,72.0,69.2,66.6,97,84,67,30.01,29.89,15,4,23,0.03
2013-7-8,83.3,74.5,69.5,73.1,69.4,67.1,95,85,67,30.01,29.93,10,2,14,0.00
2013-7-9,81.3,74.0,69.2,74.0,70.3,67.1,96,88,77,30.01,29.85,8,1,12,0.03
2013-7-10,83.5,75.7,70.0,75.3,70.8,64.5,96,85,69,29.85,29.63,15,6,25,0.00
2013-7-11,77.1,68.8,60.1,64.4,60.2,56.7,90,75,57,29.98,29.79,9,2,13,0.00
2013-7-12,76.2,66.8,59.3,68.4,63.3,58.1,98,89,73,30.15,29.98,3,0,6,0.00
2013-7-13,84.1,71.1,58.8,72.6,66.2,57.9,98,86,63,30.21,30.13,4,0,8,0.00
2013-7-14,89.2,77.0,65.8,76.8,70.6,64.9,98,82,55,30.26,30.20,6,1,9,0.00
2013-7-15,88.9,79.5,72.0,76.4,71.6,64.9,97,78,49,30.26,30.19,7,1,12,0.00
2013-7-16,91.9,79.7,69.2,74.8,70.3,65.8,97,76,49,30.24,30.16,7,1,10,0.00
2013-7-17,90.5,81.9,74.7,80.0,76.0,71.9,97,83,58,30.19,30.03,12,3,18,0.00
2013-7-18,87.8,79.5,74.5,81.8,75.8,69.0,97,89,68,30.06,29.90,11,2,24,0.83
2013-7-19,88.8,80.6,67.5,78.1,73.4,66.3,96,80,61,29.90,29.66,23,7,36,1.96
2013-7-20,81.9,73.3,66.2,70.4,65.9,58.4,97,80,50,29.85,29.67,14,4,22,0.70
2013-7-21,78.3,69.2,61.3,66.3,62.6,58.3,95,80,61,29.97,29.85,4,1,8,0.00
2013-7-22,80.1,68.5,58.2,69.6,63.1,57.3,97,84,63,29.97,29.74,4,0,6,0.01
2013-7-23,82.0,71.4,62.6,71.5,66.5,58.0,98,85,62,29.74,29.57,11,3,17,0.11
2013-7-24,69.4,61.1,53.5,58.3,53.2,48.6,95,76,55,30.01,29.68,9,3,18,0.00
2013-7-25,74.3,62.6,50.3,60.8,54.7,49.5,98,78,51,30.10,30.01,4,1,7,0.00
2013-7-26,78.8,63.9,49.9,63.0,55.8,49.1,98,77,50,30.10,29.96,5,0,6,0.01
2013-7-27,79.6,67.0,56.5,68.3,62.0,53.2,96,85,60,29.96,29.76,7,1,13,0.16
2013-7-28,73.2,66.8,59.0,64.7,59.2,54.3,95,78,57,29.94,29.74,13,4,20,0.01
2013-7-29,69.1,63.0,56.2,60.9,57.4,53.4,94,83,63,30.11,29.93,11,3,16,0.02
2013-7-30,73.5,65.1,56.6,62.6,58.6,54.6,94,81,59,30.17,30.10,10,2,14,0.00
2013-7-31,80.6,67.1,56.1,67.0,60.5,55.0,96,82,46,30.12,29.88,7,1,12,0.00
2013-8-1,76.2,68.1,62.7,67.8,63.9,61.2,96,87,63,29.88,29.73,11,2,17,0.51
2013-8-2,75.9,66.2,57.9,67.7,61.0,57.1,98,85,60,29.85,29.78,12,2,21,0.85
2013-8-3,75.3,66.7,58.6,62.3,58.7,53.8,97,77,49,29.91,29.79,12,4,16,0.01
2013-8-4,70.3,62.7,52.6,59.6,55.1,49.5,95,77,53,30.04,29.91,13,4,18,0.00
2013-8-5,74.9,61.6,49.6,59.2,53.6,48.3,97,78,46,30.10,29.99,7,1,10,0.00
2013-8-6,81.2,66.8,54.7,63.7,58.2,53.3,97,77,46,30.02,29.91,6,0,12,0.00
2013-8-7,82.3,73.0,64.9,71.6,65.6,60.5,90,78,65,29.93,29.80,7,2,13,0.00
2013-8-8,82.0,73.2,65.9,73.8,69.1,64.7,97,87,72,29.92,29.84,7,1,12,0.46
2013-8-9,76.6,69.8,64.1,70.0,64.8,57.7,97,85,53,29.90,29.83,8,2,12,0.81
2013-8-10,71.7,65.0,57.0,61.5,56.2,51.6,94,75,51,30.06,29.90,10,2,17,0.00
2013-8-11,75.8,63.9,52.2,60.3,55.1,51.2,98,76,48,30.11,30.00,8,1,12,0.00
2013-8-12,77.0,67.6,57.9,65.7,61.1,55.8,95,81,61,30.02,29.81,9,1,15,0.00
2013-8-13,68.9,64.1,56.0,66.1,58.6,49.4,97,83,61,29.86,29.72,15,4,22,0.46
2013-8-14,68.2,59.4,50.4,54.8,51.4,48.1,94,76,51,30.08,29.84,12,5,21,0.04
2013-8-15,72.0,62.2,50.4,57.4,52.8,48.3,93,73,54,30.11,30.04,13,3,21,0.00
2013-8-16,77.7,64.3,53.1,62.0,56.2,51.2,95,77,49,30.18,30.09,9,1,12,0.00
2013-8-17,82.2,66.5,52.7,66.6,58.2,51.9,98,78,40,30.26,30.18,4,0,6,0.00
2013-8-18,82.2,67.7,55.2,66.2,59.8,54.1,97,79,47,30.22,30.08,5,0,8,0.00
2013-8-19,80.8,69.3,59.0,66.9,61.7,57.6,96,79,50,30.09,29.99,10,2,14,0.01
2013-8-20,81.9,70.9,60.1,68.1,63.5,58.3,96,79,57,30.10,30.02,12,3,17,0.00
2013-8-21,85.0,72.9,62.0,69.4,63.8,59.2,91,75,54,30.13,29.98,10,2,14,0.00
2013-8-22,81.2,72.5,64.5,72.3,65.8,56.7,89,80,67,30.00,29.88,14,3,21,0.00
2013-8-23,73.9,64.4,54.2,61.9,56.5,52.6,97,78,51,30.18,29.96,6,1,10,0.00
2013-8-24,78.7,62.8,49.2,63.0,54.6,48.3,98,78,44,30.33,30.18,4,0,8,0.00
2013-8-25,80.2,66.7,50.8,64.2,56.5,49.7,97,73,42,30.31,30.09,14,2,18,0.08
2013-8-26,78.3,70.7,66.2,72.3,67.5,61.8,96,90,79,30.11,29.90,11,4,20,0.53
2013-8-27,83.6,74.2,69.0,75.2,71.1,67.8,98,90,72,29.91,29.83,9,2,12,0.04
2013-8-28,81.8,74.0,67.6,75.2,70.8,66.5,98,90,73,29.93,29.81,5,0,9,0.09
2013-8-29,84.0,72.5,62.3,74.3,67.2,61.5,98,85,62,30.02,29.92,5,0,8,0.01
2013-8-30,82.1,72.5,63.7,72.3,67.4,62.8,98,85,61,29.97,29.71,10,2,14,0.01
2013-8-31,80.5,72.7,65.8,72.6,69.0,64.3,97,88,73,29.81,29.66,9,2,13,0.00
2013-9-1,81.7,71.3,64.1,73.4,68.6,63.2,98,92,73,29.81,29.71,5,0,8,0.48
2013-9-2,79.1,70.4,62.1,73.4,66.9,56.5,98,89,70,29.76,29.65,14,3,20,0.08
2013-9-3,66.7,62.0,57.4,60.3,57.6,54.9,92,86,78,29.93,29.75,14,5,20,0.00
2013-9-4,75.0,65.0,54.7,64.3,57.7,50.0,96,79,46,29.97,29.91,17,5,24,0.08
2013-9-5,63.1,56.8,44.9,60.4,49.2,41.2,97,78,47,30.21,29.95,8,2,14,0.00
2013-9-6,69.1,55.4,42.1,53.3,46.9,40.9,97,76,44,30.28,30.07,9,2,13,0.00
2013-9-7,63.3,59.4,54.0,61.7,55.3,50.1,96,86,73,30.07,29.84,8,2,18,0.26
2013-9-8,66.3,61.2,48.4,65.4,53.9,46.3,97,79,50,30.08,29.84,6,2,10,0.01
2013-9-9,74.8,59.0,43.8,64.3,53.8,42.9,98,84,57,30.11,29.91,7,1,10,0.00
2013-9-10,87.0,77.6,66.7,75.3,70.7,63.8,93,80,66,29.96,29.85,17,5,26,0.18
2013-9-11,87.6,80.0,71.5,74.6,72.2,69.3,93,78,60,29.98,29.85,12,4,21,0.35
2013-9-12,73.1,67.8,59.4,69.7,65.8,56.5,97,94,82,29.89,29.69,12,3,22,0.31
2013-9-13,59.9,54.2,48.5,58.0,52.1,46.6,95,92,87,30.02,29.73,8,2,13,0.10
2013-9-14,62.7,52.5,46.7,47.2,43.9,35.4,94,74,41,30.12,30.01,8,2,13,0.00
2013-9-15,66.9,56.2,46.5,56.1,49.8,41.9,94,80,64,30.14,30.03,12,3,18,0.11
2013-9-16,55.2,49.8,40.2,52.9,47.7,39.1,97,93,74,30.37,30.05,5,1,15,0.07
2013-9-17,66.1,49.7,35.9,49.6,43.4,35.1,98,82,48,30.48,30.27,3,0,7,0.01
2013-9-18,74.5,57.0,44.1,54.6,46.9,41.1,96,73,36,30.27,30.08,6,1,9,0.00
2013-9-19,77.3,61.8,49.9,65.3,56.2,47.7,96,83,56,30.10,29.97,6,1,9,0.00
2013-9-20,82.8,69.4,56.0,69.7,63.2,54.6,97,82,61,29.98,29.69,9,2,16,0.01
2013-9-21,72.5,62.9,53.0,67.2,60.8,49.5,97,93,79,29.72,29.58,12,2,20,2.29
2013-9-22,55.1,51.5,49.2,49.7,45.8,42.3,93,81,65,30.02,29.71,12,3,18,0.00
2013-9-23,58.8,49.9,41.3,45.6,43.4,39.9,97,80,56,30.15,30.02,10,1,14,0.00
2013-9-24,63.2,49.8,38.8,52.1,43.6,38.0,98,82,42,30.15,30.00,6,1,9,0.01
2013-9-25,70.1,52.8,40.4,56.2,46.5,39.4,98,82,48,30.01,29.94,4,0,8,0.00
2013-9-26,70.3,55.3,41.8,58.2,50.0,41.0,98,84,58,30.13,29.98,3,0,6,0.01
2013-9-27,69.3,56.3,46.0,59.8,52.4,45.1,98,88,68,30.25,30.13,4,0,6,0.00
2013-9-28,75.3,59.3,46.8,61.8,54.1,46.0,98,85,54,30.27,30.13,3,0,6,0.01
2013-9-29,76.8,60.8,46.5,60.5,54.0,45.4,97,80,52,30.13,29.95,9,1,16,0.01
2013-9-30,73.9,64.4,58.8,63.3,58.8,54.8,95,83,67,29.97,29.91,11,2,16,0.00
2013-10-1,72.4,64.7,56.6,63.1,59.9,55.8,98,85,59,29.99,29.87,12,2,18,0.00
2013-10-2,75.3,66.9,53.7,64.3,61.3,50.1,95,83,50,30.06,29.88,13,4,18,0.00
2013-10-3,72.8,59.1,46.8,58.3,51.7,45.0,97,80,39,30.10,29.98,2,0,4,0.13
2013-10-4,67.3,62.7,59.0,66.4,61.7,57.6,98,97,95,30.04,29.95,4,0,6,0.57
2013-10-5,63.4,59.7,57.7,62.4,58.5,56.0,98,96,92,30.07,29.98,4,0,7,0.59
2013-10-6,82.3,68.3,58.0,74.0,65.0,56.6,98,90,67,29.98,29.64,7,0,12,0.38
2013-10-7,74.8,59.7,49.6,66.1,54.0,45.3,96,82,63,30.02,29.59,22,7,29,0.47
2013-10-8,63.6,52.3,42.7,50.9,46.1,41.6,96,81,52,30.34,30.03,6,1,10,0.00
2013-10-9,69.3,54.2,40.0,50.8,46.3,39.1,97,78,45,30.38,30.24,4,0,6,0.01
2013-10-10,68.8,52.9,40.7,52.1,45.4,39.4,97,79,39,30.26,30.12,3,0,5,0.00
2013-10-11,70.3,54.7,44.4,57.5,49.0,43.1,97,83,53,30.16,30.09,4,0,6,0.01
2013-10-12,76.0,58.2,43.6,57.1,48.0,42.5,98,73,33,30.17,30.08,4,0,7,0.00
2013-10-13,68.9,61.5,54.3,62.4,55.1,43.6,97,80,64,30.23,30.13,9,1,12,0.22
2013-10-14,63.2,55.0,44.5,60.6,49.7,42.9,97,84,59,30.33,30.23,9,2,14,0.08
2013-10-15,69.8,55.5,42.0,58.3,51.2,40.8,98,87,62,30.28,29.91,5,0,8,0.01
2013-10-16,69.4,62.5,54.7,60.8,57.3,50.8,95,84,70,29.91,29.71,12,4,20,0.38
2013-10-17,62.4,54.4,49.1,52.9,49.8,45.7,96,85,66,29.85,29.66,8,2,12,0.32
2013-10-18,59.2,52.4,47.6,50.6,45.3,39.3,95,78,52,29.88,29.70,20,6,33,0.00
2013-10-19,59.2,51.7,42.1,49.4,45.6,40.2,94,80,65,29.86,29.62,13,4,17,0.21
2013-10-20,54.6,46.1,39.8,46.0,41.7,36.7,95,85,64,29.96,29.74,12,4,17,0.00
2013-10-21,66.1,54.7,44.4,50.0,42.8,39.2,95,67,39,29.95,29.76,13,4,20,0.15
2013-10-22,49.1,44.4,39.7,47.7,36.0,28.8,95,73,54,29.83,29.73,20,8,28,0.38
2013-10-23,46.2,40.2,35.1,40.3,35.6,31.0,94,84,65,29.81,29.69,10,3,16,0.05
2013-10-24,46.1,38.7,32.6,37.7,34.0,30.3,95,84,62,30.02,29.79,20,7,30,0.39
2013-10-25,47.9,40.2,33.5,40.4,36.0,32.6,97,86,61,30.18,29.97,15,3,18,0.13
2013-10-26,44.3,41.3,38.4,39.9,35.6,30.2,95,81,63,29.97,29.76,25,7,33,0.39
2013-10-27,46.9,41.5,34.7,39.7,36.3,33.3,96,82,65,30.04,29.80,14,4,17,0.08
2013-10-28,46.9,41.3,28.6,40.7,32.0,20.9,87,70,41,30.39,30.01,9,2,14,0.00
2013-10-29,48.4,36.5,26.9,34.7,29.9,23.8,95,79,49,30.47,30.29,4,0,7,0.00
2013-10-30,57.2,44.9,37.5,43.7,39.3,34.7,94,82,57,30.30,30.08,4,0,6,0.02
2013-10-31,67.3,56.2,41.2,60.5,52.5,38.8,97,88,70,30.08,29.31,15,4,30,0.65
2013-11-1,62.2,55.4,48.0,60.4,50.2,43.4,97,83,70,29.64,29.10,38,14,54,0.15
2013-11-2,49.4,43.6,36.4,45.7,41.4,33.4,96,92,84,30.01,29.58,9,2,16,0.18
2013-11-3,37.9,32.3,25.0,33.4,25.9,22.0,94,78,56,30.53,30.01,7,1,13,0.00
2013-11-4,41.2,33.0,22.8,30.8,24.3,21.3,96,72,47,30.65,30.43,6,1,12,0.00
2013-11-5,59.4,46.3,32.5,39.8,32.6,22.4,75,60,45,30.44,30.30,9,2,13,0.00
2013-11-6,66.7,56.6,46.8,56.4,45.4,32.2,95,67,52,30.30,29.77,20,6,31,0.19
2013-11-7,56.2,43.2,37.8,53.9,37.0,31.1,93,79,65,29.98,29.76,18,7,26,0.11
2013-11-8,41.3,38.1,35.1,33.5,31.2,27.9,88,76,61,30.23,29.95,17,6,24,0.00
2013-11-9,50.9,42.7,33.9,44.8,33.9,28.8,91,72,48,30.22,29.76,14,4,22,0.09
2013-11-10,49.0,43.1,37.2,42.7,36.4,31.4,93,77,67,30.17,29.76,26,10,36,0.06
2013-11-11,44.7,37.2,29.5,39.8,32.9,23.7,95,85,71,30.17,29.91,22,7,30,0.09
2013-11-12,32.1,28.8,26.2,24.8,21.6,16.6,85,75,60,30.41,30.13,13,6,20,0.00
2013-11-13,38.5,31.7,22.5,30.2,24.6,19.8,91,75,57,30.43,30.06,27,9,39,0.00
2013-11-14,47.8,42.7,38.0,34.5,28.1,20.0,80,58,35,30.09,29.99,28,14,40,0.00
2013-11-15,51.0,45.2,41.0,35.8,28.0,21.9,69,51,41,30.09,30.02,20,6,25,0.00
2013-11-16,59.4,49.8,41.6,44.6,36.5,27.3,77,61,47,30.22,29.97,10,2,12,0.00
2013-11-17,63.6,58.0,51.4,57.0,52.0,44.8,94,80,70,29.97,29.30,24,5,35,0.29
2013-11-18,54.7,44.9,36.1,49.9,36.5,28.9,94,72,63,29.92,29.32,40,18,60,0.10
2013-11-19,37.1,33.6,23.7,29.4,25.4,21.0,89,72,60,30.46,29.91,14,6,24,0.00
2013-11-20,39.3,29.6,20.3,27.8,22.9,18.5,95,77,55,30.59,30.42,6,2,9,0.00
2013-11-21,44.7,38.2,27.5,38.4,28.2,17.9,94,68,51,30.42,30.23,12,2,18,0.08
2013-11-22,46.8,41.6,31.6,46.0,39.8,27.0,97,93,82,30.23,29.99,19,4,24,0.31
2013-11-23,32.2,27.2,17.6,27.3,20.9,9.2,94,77,55,30.22,30.02,23,9,33,0.00
2013-11-24,23.7,19.4,15.0,17.5,13.1,9.2,89,76,62,30.44,30.22,18,8,25,0.00
2013-11-25,34.4,25.8,16.8,27.3,17.1,11.3,86,71,42,30.41,30.09,18,7,31,0.00
2013-11-26,35.4,32.6,30.4,31.4,29.9,26.1,96,90,78,30.14,29.81,10,2,18,0.00
2013-11-27,32.7,29.5,22.7,31.5,26.0,16.3,97,87,73,29.94,29.66,17,6,25,0.00
2013-11-28,27.0,22.4,16.3,20.5,15.8,10.4,92,76,56,30.44,29.94,16,4,25,0.00
2013-11-29,28.3,21.3,13.2,20.9,15.6,9.0,94,80,57,30.74,30.43,5,0,6,0.00
2013-11-30,34.8,25.9,13.2,25.5,17.8,8.9,86,72,57,30.72,30.18,10,2,17,0.00
2013-12-1,41.1,36.4,33.1,33.9,30.1,25.4,88,78,65,30.18,29.94,9,2,12,0.02
2013-12-2,37.8,35.7,29.3,34.7,32.4,27.8,95,88,79,29.94,29.86,5,2,7,0.00
2013-12-3,40.0,32.1,25.9,30.2,27.7,24.4,96,84,62,30.01,29.91,5,1,6,0.00
2013-12-4,50.6,40.0,33.4,42.1,36.0,29.9,94,86,71,30.01,29.83,4,2,8,0.03
2013-12-5,62.8,50.8,39.0,55.4,44.9,33.1,91,80,73,30.02,29.70,23,8,27,0.00
2013-12-6,38.7,33.1,30.1,33.4,27.3,23.1,95,80,70,30.26,30.01,10,5,15,0.04
2013-12-7,30.1,26.8,23.0,23.8,19.1,13.3,84,73,61,30.57,30.24,17,8,21,0.00
2013-12-8,27.9,24.0,17.1,22.6,16.2,12.9,88,72,60,30.58,30.18,10,2,15,0.00
2013-12-9,38.0,32.4,26.3,35.5,29.0,22.4,95,87,78,30.18,29.84,26,11,35,0.01
2013-12-10,29.1,23.4,20.5,23.1,14.8,8.9,91,70,53,30.06,29.91,21,11,26,0.00
2013-12-11,25.3,21.2,14.8,19.0,13.5,8.9,88,72,62,30.29,30.06,26,10,35,0.00
2013-12-12,21.0,16.1,10.2,16.5,9.1,2.1,90,74,57,30.34,30.07,24,10,37,0.00
2013-12-13,23.2,18.1,10.6,20.7,13.9,6.5,91,83,72,30.42,30.05,20,6,27,0.00
2013-12-14,18.3,13.9,9.8,16.5,11.1,6.0,93,88,82,30.43,29.76,8,3,17,0.00
2013-12-15,24.5,20.7,17.8,21.0,16.5,11.3,93,84,72,29.88,29.72,24,6,32,0.00
2013-12-16,19.8,13.8,2.8,14.3,8.8,0.1,90,81,66,30.19,29.88,19,5,24,0.00
2013-12-17,25.9,17.9,1.7,24.2,14.9,-1.0,93,88,78,30.16,29.93,15,3,20,0.00
2013-12-18,31.0,27.6,22.3,24.6,22.4,19.3,93,81,71,30.06,29.93,18,8,28,0.00
2013-12-19,40.3,34.7,27.5,33.6,28.0,18.5,91,77,65,30.03,29.87,22,6,28,0.00
2013-12-20,42.4,37.8,34.7,41.6,36.7,32.3,97,96,91,29.99,29.76,11,1,14,0.58
2013-12-21,51.2,36.3,30.8,50.7,35.5,30.0,98,97,91,29.88,29.68,9,2,13,0.82
2013-12-22,38.4,34.1,30.5,37.9,33.3,29.8,98,97,96,29.95,29.61,12,2,16,0.08
2013-12-23,38.1,32.4,24.8,37.1,30.0,19.8,96,91,80,30.27,29.93,12,5,17,0.00
2013-12-24,25.7,19.7,13.2,22.0,16.5,8.8,94,87,79,30.51,30.21,12,4,16,0.00
2013-12-25,22.7,13.6,1.4,17.8,9.2,-1.1,91,83,69,30.54,30.21,8,1,9,0.00
2013-12-26,30.4,26.5,19.4,27.6,21.6,13.2,94,82,71,30.28,30.06,15,5,21,0.00
2013-12-27,34.7,27.7,18.3,29.0,23.6,12.2,93,85,73,30.28,30.06,13,6,16,0.00
2013-12-28,42.2,38.4,33.3,34.7,32.6,29.0,92,80,68,30.08,29.92,22,10,31,0.00
2013-12-29,46.4,41.1,27.3,38.2,31.8,22.5,92,70,51,29.92,29.60,14,6,24,0.00
2013-12-30,27.0,18.5,14.8,22.8,11.2,6.5,84,73,62,30.23,29.77,19,6,26,0.00
2013-12-31,22.1,17.6,13.3,19.4,11.0,4.5,90,75,62,30.24,29.97,27,8,37,0.00
2014-1-1,20.6,15.7,12.9,13.7,10.1,6.2,89,79,62,30.42,30.24,14,4,22,0.00
2014-1-2,13.9,9.2,4.4,11.5,6.6,1.6,90,89,88,30.32,30.03,7,4,12,0.00